Time;durP1;ratioP1;P1;durP2;ratioP2;P2;SDS_P1;SDS_P2;PMS_P1;PMS_P2;Temp;Humidity;BMP_temperature;BMP_pressure;BME280_temperature;BME280_humidity;BME280_pressure;Samples;Min_cycle;Max_cycle;Signal;HPM_P1;HPM_P2
2023/04/14 00:01:27;;;;;;;8.57;2.53;;;5.70;99.90;;;;;;5100131;28;20488;-71
2023/04/14 00:03:53;;;;;;;6.63;1.85;;;5.60;99.90;;;;;;5109341;28;20036;-71
2023/04/14 00:06:18;;;;;;;10.35;2.33;;;5.50;99.90;;;;;;5092030;28;20043;-71
2023/04/14 00:08:44;;;;;;;8.25;2.15;;;5.50;99.90;;;;;;5110914;28;20043;-71
2023/04/14 00:11:10;;;;;;;6.18;1.90;;;5.50;99.90;;;;;;5091102;28;20045;-71
2023/04/14 00:13:35;;;;;;;7.00;2.38;;;5.40;99.90;;;;;;5091954;28;20152;-71
2023/04/14 00:16:01;;;;;;;9.55;2.03;;;5.40;99.90;;;;;;5075400;28;20040;-71
2023/04/14 00:18:27;;;;;;;6.63;1.60;;;5.40;99.90;;;;;;5100433;28;20039;-71
2023/04/14 00:20:53;;;;;;;7.38;2.30;;;5.40;99.90;;;;;;5093165;28;20034;-71
2023/04/14 00:23:19;;;;;;;9.32;2.20;;;5.30;99.90;;;;;;5091931;28;20055;-71
2023/04/14 00:25:45;;;;;;;9.32;2.30;;;5.30;99.90;;;;;;5091898;28;20040;-71
2023/04/14 00:28:10;;;;;;;8.38;2.20;;;5.30;99.90;;;;;;5105916;28;20454;-71
2023/04/14 00:30:36;;;;;;;6.88;2.20;;;5.40;99.90;;;;;;5093635;28;20505;-71
2023/04/14 00:33:02;;;;;;;8.93;2.17;;;5.30;99.90;;;;;;5112040;28;20040;-71
2023/04/14 00:35:27;;;;;;;6.55;1.95;;;5.20;99.90;;;;;;5108361;28;20530;-71
2023/04/14 00:37:55;;;;;;;7.00;2.03;;;5.20;99.90;;;;;;5093673;28;20036;-71
2023/04/14 00:40:21;;;;;;;9.23;2.20;;;5.30;99.90;;;;;;5095608;28;20043;-71
2023/04/14 00:42:47;;;;;;;6.63;2.42;;;5.30;99.90;;;;;;5106871;28;20032;-71
2023/04/14 00:45:13;;;;;;;9.40;2.65;;;5.30;99.90;;;;;;5097929;28;20511;-71
2023/04/14 00:47:40;;;;;;;9.95;2.63;;;5.20;99.90;;;;;;5102314;28;20036;-71
2023/04/14 00:50:10;;;;;;;9.50;2.70;;;5.20;99.90;;;;;;5099107;28;20381;-71
2023/04/14 00:52:37;;;;;;;7.35;2.22;;;5.30;99.90;;;;;;5097448;28;20035;-71
2023/04/14 00:55:04;;;;;;;7.25;2.70;;;5.30;99.90;;;;;;5115931;28;20552;-71
2023/04/14 00:57:30;;;;;;;9.27;2.40;;;5.30;99.90;;;;;;5095664;28;20040;-71
2023/04/14 00:59:57;;;;;;;6.05;2.10;;;5.30;99.90;;;;;;5095188;28;20146;-71
2023/04/14 01:02:24;;;;;;;6.38;2.00;;;5.20;99.90;;;;;;5082844;28;20040;-71
2023/04/14 01:04:50;;;;;;;5.97;2.25;;;5.20;99.90;;;;;;5086426;28;20442;-71
2023/04/14 01:07:20;;;;;;;8.63;2.50;;;5.20;99.90;;;;;;5115645;28;20088;-71
2023/04/14 01:09:46;;;;;;;5.15;1.80;;;5.20;99.90;;;;;;5098513;28;20051;-71
2023/04/14 01:12:29;;;;;;;7.28;2.60;;;5.10;99.90;;;;;;5125774;27;20040;-71
2023/04/14 01:15:11;;;;;;;5.60;1.98;;;5.10;99.90;;;;;;5094669;28;20050;-71
2023/04/14 01:18:13;;;;;;;10.27;2.85;;;5.00;99.90;;;;;;5085216;28;20043;-71
2023/04/14 01:20:46;;;;;;;8.13;2.28;;;5.00;99.90;;;;;;5132742;27;20043;-71
2023/04/14 01:23:21;;;;;;;7.35;2.13;;;5.00;99.90;;;;;;5114318;28;20118;-71
2023/04/14 01:26:17;;;;;;;7.53;1.80;;;4.90;99.90;;;;;;5114081;28;20047;-71
2023/04/14 01:29:01;;;;;;;10.15;2.63;;;4.90;99.90;;;;;;5098345;28;20035;-71
2023/04/14 01:31:39;;;;;;;7.53;2.20;;;4.90;99.90;;;;;;5097010;28;20039;-71
2023/04/14 01:34:28;;;;;;;8.48;2.95;;;4.90;99.90;;;;;;5094787;28;20040;-71
2023/04/14 01:37:01;;;;;;;5.68;1.95;;;4.90;99.90;;;;;;5094725;28;20054;-71
2023/04/14 01:39:29;;;;;;;;;;;4.90;99.90;;;;;;5115401;28;20035;-71
2023/04/14 01:41:57;;;;;;;8.45;2.15;;;4.90;99.90;;;;;;5095654;28;19919;-71
2023/04/14 01:44:24;;;;;;;10.57;2.60;;;5.00;99.90;;;;;;5097886;28;20031;-71
2023/04/14 01:46:55;;;;;;;8.18;2.20;;;5.00;99.90;;;;;;5096844;28;20068;-71
2023/04/14 01:49:24;;;;;;;8.07;2.50;;;5.00;99.90;;;;;;5095215;28;20040;-71
2023/04/14 01:51:50;;;;;;;6.40;2.20;;;5.00;99.90;;;;;;5094643;28;20483;-71
2023/04/14 01:54:17;;;;;;;7.30;2.40;;;5.10;99.90;;;;;;5094295;28;20582;-71
2023/04/14 01:56:44;;;;;;;8.32;2.72;;;5.10;99.90;;;;;;5109037;28;20039;-71
2023/04/14 01:59:11;;;;;;;5.30;2.15;;;5.10;99.90;;;;;;5097571;28;20043;-71
2023/04/14 02:01:38;;;;;;;9.25;2.85;;;5.00;99.90;;;;;;5094874;28;20043;-71
2023/04/14 02:04:06;;;;;;;11.27;2.55;;;5.00;99.90;;;;;;5105675;28;20039;-71
2023/04/14 02:06:35;;;;;;;4.97;1.85;;;5.00;99.90;;;;;;5083225;28;20071;-71
2023/04/14 02:09:09;;;;;;;6.30;2.03;;;5.00;99.90;;;;;;5094174;28;20040;-71
2023/04/14 02:11:36;;;;;;;7.85;2.50;;;5.00;99.90;;;;;;5076847;28;20488;-71
2023/04/14 02:14:03;;;;;;;7.32;1.92;;;5.00;99.90;;;;;;5114460;28;20046;-70
2023/04/14 02:16:29;;;;;;;8.30;2.30;;;5.00;99.90;;;;;;5100399;28;20048;-71
2023/04/14 02:18:56;;;;;;;7.07;2.65;;;5.00;99.90;;;;;;5081892;28;20119;-71
2023/04/14 02:21:24;;;;;;;7.32;2.40;;;5.00;99.90;;;;;;5076935;28;20469;-71
2023/04/14 02:23:50;;;;;;;8.35;2.38;;;5.00;99.90;;;;;;5114012;28;20039;-71
2023/04/14 02:26:21;;;;;;;6.03;2.13;;;5.00;99.90;;;;;;5116547;27;20040;-71
2023/04/14 02:28:59;;;;;;;6.75;2.22;;;5.00;99.90;;;;;;5093761;28;20051;-71
2023/04/14 02:31:26;;;;;;;7.07;2.15;;;5.00;99.90;;;;;;5093342;28;20507;-71
2023/04/14 02:33:54;;;;;;;7.20;2.28;;;5.00;99.90;;;;;;5109006;27;20043;-71
2023/04/14 02:36:44;;;;;;;7.07;2.22;;;5.10;99.90;;;;;;5112020;28;20407;-71
2023/04/14 02:39:21;;;;;;;9.95;2.38;;;5.00;99.90;;;;;;5113923;28;20048;-71
2023/04/14 02:41:56;;;;;;;7.60;1.92;;;5.10;99.90;;;;;;5095983;28;20113;-71
2023/04/14 02:44:26;;;;;;;5.78;1.80;;;5.10;99.90;;;;;;5113818;28;20046;-71
2023/04/14 02:47:02;;;;;;;7.97;2.20;;;5.10;99.90;;;;;;5112410;28;20032;-71
2023/04/14 02:49:31;;;;;;;6.32;2.03;;;5.10;99.90;;;;;;5096738;28;20602;-71
2023/04/14 02:51:57;;;;;;;5.72;1.90;;;5.10;99.90;;;;;;5091849;28;20541;-71
2023/04/14 02:54:24;;;;;;;4.65;1.80;;;5.10;99.90;;;;;;5098499;28;20066;-71
2023/04/14 02:56:50;;;;;;;6.55;2.10;;;5.10;99.90;;;;;;5087525;28;20093;-71
2023/04/14 02:59:16;;;;;;;7.78;2.30;;;5.10;99.90;;;;;;5093020;28;20040;-71
2023/04/14 03:01:44;;;;;;;7.80;2.22;;;5.10;99.90;;;;;;5091578;28;21741;-70
2023/04/14 03:04:10;;;;;;;7.50;2.20;;;5.20;99.90;;;;;;5093307;28;20089;-71
2023/04/14 03:06:38;;;;;;;7.22;2.50;;;5.20;99.90;;;;;;5093668;28;20040;-71
2023/04/14 03:09:04;;;;;;;11.02;2.38;;;5.20;99.90;;;;;;5095566;28;20555;-71
2023/04/14 03:11:31;;;;;;;7.20;2.13;;;5.20;99.90;;;;;;5111902;28;20057;-71
2023/04/14 03:13:58;;;;;;;6.57;1.95;;;5.20;99.90;;;;;;5093103;28;20101;-71
2023/04/14 03:16:25;;;;;;;5.90;1.92;;;5.20;99.90;;;;;;5092896;28;20047;-71
2023/04/14 03:18:53;;;;;;;5.00;1.58;;;5.20;99.90;;;;;;5091986;28;20500;-71
2023/04/14 03:21:20;;;;;;;7.70;1.88;;;5.20;99.90;;;;;;5092876;28;20048;-71
2023/04/14 03:23:48;;;;;;;6.10;2.13;;;5.20;99.90;;;;;;5110556;28;20396;-71
2023/04/14 03:26:17;;;;;;;5.80;2.15;;;5.20;99.90;;;;;;5113023;28;20566;-71
2023/04/14 03:28:47;;;;;;;7.82;2.35;;;5.20;99.90;;;;;;5113147;28;20068;-71
2023/04/14 03:31:15;;;;;;;6.15;2.42;;;5.20;99.90;;;;;;5112898;28;20044;-71
2023/04/14 03:33:43;;;;;;;7.53;2.30;;;5.30;99.90;;;;;;5076682;28;20082;-71
2023/04/14 03:36:10;;;;;;;6.50;2.47;;;5.30;99.90;;;;;;5091139;28;20043;-71
2023/04/14 03:38:36;;;;;;;6.57;1.90;;;5.30;99.90;;;;;;5092389;28;20048;-71
2023/04/14 03:41:04;;;;;;;5.53;2.25;;;5.30;99.90;;;;;;5092713;28;20036;-71
2023/04/14 03:43:32;;;;;;;6.03;1.70;;;5.30;99.90;;;;;;5103503;28;20092;-71
2023/04/14 03:45:58;;;;;;;7.72;1.80;;;5.30;99.90;;;;;;5095667;28;20036;-71
2023/04/14 03:48:28;;;;;;;6.15;2.00;;;5.30;99.90;;;;;;5095173;28;20035;-71
2023/04/14 03:50:57;;;;;;;6.22;1.90;;;5.30;99.90;;;;;;5083461;28;20093;-71
2023/04/14 03:53:25;;;;;;;4.00;1.83;;;5.40;99.90;;;;;;5092057;28;20059;-71
2023/04/14 03:55:55;;;;;;;7.90;2.20;;;5.40;99.90;;;;;;5091670;28;20036;-71
2023/04/14 03:58:21;;;;;;;8.45;2.10;;;5.40;99.90;;;;;;5092425;28;20039;-71
2023/04/14 04:00:48;;;;;;;9.15;2.20;;;5.40;99.90;;;;;;5102286;28;20479;-71
2023/04/14 04:03:14;;;;;;;6.15;2.00;;;5.40;99.90;;;;;;5112549;28;20050;-71
2023/04/14 04:05:41;;;;;;;9.35;2.22;;;5.40;99.90;;;;;;5094052;28;20043;-71
2023/04/14 04:08:08;;;;;;;8.00;1.98;;;5.40;99.90;;;;;;5111460;28;20035;-70
2023/04/14 04:10:35;;;;;;;7.93;2.47;;;5.40;99.90;;;;;;5086165;28;20032;-71
2023/04/14 04:13:02;;;;;;;5.72;2.05;;;5.40;99.90;;;;;;5103394;28;20032;-71
2023/04/14 04:15:30;;;;;;;7.18;2.25;;;5.40;99.90;;;;;;5095376;28;20077;-70
2023/04/14 04:18:00;;;;;;;5.30;1.83;;;5.40;99.90;;;;;;5112316;28;20538;-70
2023/04/14 04:20:28;;;;;;;6.88;2.00;;;5.30;99.90;;;;;;5104012;28;20048;-70
2023/04/14 04:22:56;;;;;;;7.95;1.90;;;5.30;99.90;;;;;;5091820;28;20124;-71
2023/04/14 04:25:22;;;;;;;5.72;1.90;;;5.30;99.90;;;;;;5091980;28;20499;-71
2023/04/14 04:27:48;;;;;;;6.35;2.05;;;5.30;99.90;;;;;;5091588;28;20059;-71
2023/04/14 04:30:16;;;;;;;5.53;1.83;;;5.20;99.90;;;;;;5092206;28;20047;-71
2023/04/14 04:32:42;;;;;;;6.28;1.90;;;5.20;99.90;;;;;;5091791;28;20059;-71
2023/04/14 04:35:08;;;;;;;6.88;1.92;;;5.10;99.90;;;;;;5108722;28;20036;-71
2023/04/14 04:37:35;;;;;;;6.68;2.35;;;5.10;99.90;;;;;;5095949;28;20495;-71
2023/04/14 04:40:01;;;;;;;6.25;2.10;;;5.10;99.90;;;;;;5092771;28;20562;-71
2023/04/14 04:42:26;;;;;;;8.00;2.25;;;5.00;99.90;;;;;;5091433;28;20157;-71
2023/04/14 04:44:52;;;;;;;6.88;1.92;;;5.00;99.90;;;;;;5091691;28;20036;-71
2023/04/14 04:47:17;;;;;;;5.38;2.03;;;5.00;99.90;;;;;;5098196;28;20052;-71
2023/04/14 04:49:43;;;;;;;7.85;1.98;;;4.90;99.90;;;;;;5094966;28;20069;-71
2023/04/14 04:52:08;;;;;;;6.35;2.30;;;4.90;99.90;;;;;;5085324;28;20036;-71
2023/04/14 04:54:34;;;;;;;7.65;2.60;;;4.90;99.90;;;;;;5127496;28;20136;-71
2023/04/14 04:57:00;;;;;;;6.78;1.73;;;4.90;99.90;;;;;;5093464;28;20036;-71
2023/04/14 04:59:25;;;;;;;6.60;2.00;;;4.90;99.90;;;;;;5111043;28;20134;-71
2023/04/14 05:01:51;;;;;;;6.90;2.00;;;4.90;99.90;;;;;;5095506;28;20036;-71
2023/04/14 05:04:17;;;;;;;6.78;1.92;;;4.90;99.90;;;;;;5074666;28;20466;-71
2023/04/14 05:06:42;;;;;;;5.80;2.30;;;4.90;99.90;;;;;;5093283;28;20043;-71
2023/04/14 05:09:08;;;;;;;7.80;2.35;;;5.00;99.90;;;;;;5111822;28;20036;-71
2023/04/14 05:11:34;;;;;;;5.88;2.05;;;4.90;99.90;;;;;;5081516;28;20403;-71
2023/04/14 05:14:00;;;;;;;5.28;2.00;;;4.90;99.90;;;;;;5091445;28;20068;-71
2023/04/14 05:16:27;;;;;;;7.03;2.20;;;5.00;99.90;;;;;;5091028;28;20059;-72
2023/04/14 05:18:53;;;;;;;6.10;2.08;;;5.10;99.90;;;;;;5108423;28;20032;-72
2023/04/14 05:21:19;;;;;;;6.50;2.00;;;5.10;99.90;;;;;;5076722;28;20051;-71
2023/04/14 05:23:45;;;;;;;6.97;1.90;;;5.10;99.90;;;;;;5092777;28;20040;-71
2023/04/14 05:26:12;;;;;;;6.55;2.40;;;5.10;99.90;;;;;;5095078;28;20088;-71
2023/04/14 05:28:39;;;;;;;7.05;2.17;;;5.10;99.90;;;;;;5094968;28;20036;-71
2023/04/14 05:31:05;;;;;;;6.32;2.15;;;5.20;99.90;;;;;;5101918;28;20080;-71
2023/04/14 05:33:30;;;;;;;7.03;2.47;;;5.10;99.90;;;;;;5100495;28;20059;-72
2023/04/14 05:35:56;;;;;;;6.93;2.28;;;5.10;99.90;;;;;;5094676;28;20036;-70
2023/04/14 05:38:22;;;;;;;7.28;1.98;;;5.10;99.90;;;;;;5094895;28;20047;-70
2023/04/14 05:40:47;;;;;;;6.60;2.03;;;5.10;99.90;;;;;;5099351;28;20023;-70
2023/04/14 05:43:14;;;;;;;6.15;1.90;;;5.10;99.90;;;;;;5104664;28;20510;-70
2023/04/14 05:45:40;;;;;;;5.88;2.67;;;5.10;99.90;;;;;;5094630;28;20032;-70
2023/04/14 05:48:06;;;;;;;5.90;2.47;;;5.00;99.90;;;;;;5094168;28;20068;-70
2023/04/14 05:50:36;;;;;;;5.70;2.10;;;5.00;99.90;;;;;;5094485;28;20101;-70
2023/04/14 05:53:01;;;;;;;9.23;2.20;;;5.00;99.90;;;;;;5093690;28;20064;-70
2023/04/14 05:55:27;;;;;;;6.25;2.13;;;5.00;99.90;;;;;;5094451;28;20101;-70
2023/04/14 05:57:52;;;;;;;5.53;1.90;;;5.00;99.90;;;;;;5105763;28;20514;-70
2023/04/14 06:00:22;;;;;;;6.40;2.00;;;5.00;99.90;;;;;;5097647;28;20096;-70
2023/04/14 06:02:47;;;;;;;6.70;2.00;;;5.10;99.90;;;;;;5099031;28;20075;-71
2023/04/14 06:05:13;;;;;;;5.97;1.83;;;5.10;99.90;;;;;;5077329;28;20067;-71
2023/04/14 06:07:41;;;;;;;6.82;2.10;;;5.10;99.90;;;;;;5102726;28;20039;-70
2023/04/14 06:10:08;;;;;;;8.07;2.60;;;5.10;99.90;;;;;;5103521;28;20055;-70
2023/04/14 06:12:33;;;;;;;9.10;4.10;;;5.10;99.90;;;;;;5093520;28;20122;-70
2023/04/14 06:14:59;;;;;;;9.07;4.40;;;5.10;99.90;;;;;;5093563;28;20182;-70
2023/04/14 06:17:24;;;;;;;8.75;3.63;;;5.10;99.90;;;;;;5072774;28;20039;-70
2023/04/14 06:19:52;;;;;;;6.78;3.33;;;5.10;99.90;;;;;;5099917;28;20036;-70
2023/04/14 06:22:18;;;;;;;6.10;2.53;;;5.20;99.90;;;;;;5100116;28;20040;-70
2023/04/14 06:24:47;;;;;;;6.85;2.78;;;5.20;99.90;;;;;;5088627;28;20043;-70
2023/04/14 06:27:13;;;;;;;8.60;2.67;;;5.30;99.90;;;;;;5100314;28;20040;-70
2023/04/14 06:29:39;;;;;;;9.30;2.30;;;5.40;99.90;;;;;;5097157;28;20458;-70
2023/04/14 06:32:05;;;;;;;7.45;2.25;;;5.70;99.90;;;;;;5112254;28;20163;-70
2023/04/14 06:34:30;;;;;;;6.95;2.08;;;5.80;99.90;;;;;;5100990;28;20127;-70
2023/04/14 06:36:57;;;;;;;7.97;2.70;;;6.00;99.90;;;;;;5105486;28;20032;-70
2023/04/14 06:39:23;;;;;;;6.93;2.63;;;6.10;99.90;;;;;;5082095;28;20040;-70
2023/04/14 06:41:49;;;;;;;7.05;2.20;;;6.10;99.90;;;;;;5114028;28;20036;-70
2023/04/14 06:44:15;;;;;;;5.20;1.85;;;6.20;99.90;;;;;;5096547;28;20075;-70
2023/04/14 06:46:40;;;;;;;6.32;2.15;;;6.30;99.90;;;;;;5096985;28;20057;-70
2023/04/14 06:49:06;;;;;;;10.93;2.60;;;6.50;99.90;;;;;;5099396;28;20036;-70
2023/04/14 06:51:32;;;;;;;6.80;2.17;;;6.70;99.90;;;;;;5099796;28;20075;-70
2023/04/14 06:53:58;;;;;;;8.50;2.45;;;6.60;99.90;;;;;;5089934;28;20063;-70
2023/04/14 06:56:24;;;;;;;8.27;2.20;;;6.60;99.90;;;;;;5096819;28;20047;-70
2023/04/14 06:58:50;;;;;;;6.70;2.38;;;6.70;99.90;;;;;;5092318;28;20049;-70
2023/04/14 07:01:15;;;;;;;8.40;2.20;;;6.80;99.90;;;;;;5103451;28;20043;-70
2023/04/14 07:03:42;;;;;;;9.80;2.00;;;6.90;99.90;;;;;;5090048;28;20442;-70
2023/04/14 07:06:10;;;;;;;8.98;2.08;;;7.00;99.90;;;;;;5092529;28;20089;-70
2023/04/14 07:08:37;;;;;;;8.15;2.03;;;7.20;99.90;;;;;;5075475;28;20044;-70
2023/04/14 07:11:08;;;;;;;6.85;2.22;;;7.30;99.90;;;;;;5087936;28;20042;-70
2023/04/14 07:13:35;;;;;;;6.72;2.00;;;7.40;99.90;;;;;;5113492;27;20118;-70
2023/04/14 07:16:02;;;;;;;5.13;2.00;;;7.50;99.90;;;;;;5111123;28;20506;-70
2023/04/14 07:18:29;;;;;;;6.35;1.73;;;7.60;99.90;;;;;;5111541;28;20441;-70
2023/04/14 07:20:54;;;;;;;9.82;1.73;;;7.90;99.90;;;;;;5097084;28;20028;-70
2023/04/14 07:23:20;;;;;;;6.18;1.95;;;8.00;99.90;;;;;;5102167;28;20039;-70
2023/04/14 07:25:51;;;;;;;6.85;1.85;;;8.10;99.90;;;;;;5096028;28;20043;-70
2023/04/14 07:28:20;;;;;;;9.82;2.13;;;8.20;99.90;;;;;;5096109;28;20046;-70
2023/04/14 07:30:47;;;;;;;8.07;2.10;;;8.20;99.90;;;;;;5085869;28;20383;-70
2023/04/14 07:33:13;;;;;;;7.70;2.05;;;8.30;99.90;;;;;;5088503;28;20476;-70
2023/04/14 07:35:38;;;;;;;12.02;2.28;;;8.40;99.90;;;;;;5102239;28;20049;-70
2023/04/14 07:38:04;;;;;;;8.98;2.00;;;8.50;99.90;;;;;;5109966;27;20527;-70
2023/04/14 07:40:30;;;;;;;8.50;1.60;;;8.60;99.90;;;;;;5100744;28;20046;-70
2023/04/14 07:42:56;;;;;;;7.45;1.70;;;8.60;99.90;;;;;;5092487;28;20077;-70
2023/04/14 07:45:22;;;;;;;8.93;1.55;;;8.80;99.90;;;;;;5089903;28;20039;-70
2023/04/14 07:47:48;;;;;;;11.50;1.75;;;8.90;99.90;;;;;;5099885;28;21388;-71
2023/04/14 07:50:14;;;;;;;11.00;1.88;;;8.90;99.90;;;;;;5087506;28;20047;-70
2023/04/14 07:52:39;;;;;;;9.32;1.90;;;9.00;99.90;;;;;;5101838;28;20066;-70
2023/04/14 07:55:05;;;;;;;7.18;1.67;;;9.10;99.90;;;;;;5098775;28;20044;-71
2023/04/14 07:57:33;;;;;;;12.05;1.80;;;9.20;99.90;;;;;;5112487;28;20503;-70
2023/04/14 07:59:59;;;;;;;10.35;1.83;;;9.40;99.90;;;;;;5093506;28;20040;-70
2023/04/14 08:02:24;;;;;;;8.57;1.60;;;9.40;99.90;;;;;;5086329;28;20490;-70
2023/04/14 08:04:50;;;;;;;9.80;2.20;;;9.60;99.90;;;;;;5075254;28;20121;-70
2023/04/14 08:07:15;;;;;;;11.43;1.90;;;9.60;99.90;;;;;;5095644;28;20044;-71
2023/04/14 08:09:42;;;;;;;8.35;1.50;;;9.80;99.90;;;;;;5087786;28;20050;-70
2023/04/14 08:12:07;;;;;;;8.65;1.45;;;9.90;99.90;;;;;;5102682;28;20560;-70
2023/04/14 08:14:33;;;;;;;8.02;2.53;;;10.00;99.90;;;;;;5098716;28;20077;-70
2023/04/14 08:16:59;;;;;;;11.90;2.63;;;10.20;99.90;;;;;;5098542;28;20077;-70
2023/04/14 08:19:24;;;;;;;7.07;1.50;;;10.40;99.90;;;;;;5089014;28;20054;-70
2023/04/14 08:21:51;;;;;;;8.57;1.58;;;10.30;99.90;;;;;;5098582;28;20036;-70
2023/04/14 08:24:16;;;;;;;5.45;1.15;;;10.40;99.90;;;;;;5090802;28;20036;-70
2023/04/14 08:26:42;;;;;;;8.90;1.88;;;10.50;99.90;;;;;;5104975;28;20065;-70
2023/04/14 08:29:07;;;;;;;10.38;1.83;;;10.50;99.90;;;;;;5100124;28;20058;-70
2023/04/14 08:31:33;;;;;;;7.60;2.13;;;10.70;99.90;;;;;;5107971;28;20047;-70
2023/04/14 08:33:59;;;;;;;10.35;1.90;;;10.70;99.90;;;;;;5084795;28;20092;-70
2023/04/14 08:36:26;;;;;;;8.93;1.80;;;10.70;99.90;;;;;;5102182;28;20173;-70
2023/04/14 08:38:52;;;;;;;11.43;1.83;;;10.80;99.90;;;;;;5094192;28;20039;-70
2023/04/14 08:41:18;;;;;;;8.88;1.73;;;10.90;99.90;;;;;;5112435;28;20031;-70
2023/04/14 08:43:45;;;;;;;5.95;1.50;;;11.00;99.90;;;;;;5095080;28;20475;-70
2023/04/14 08:46:13;;;;;;;7.30;1.58;;;11.00;99.90;;;;;;5093900;28;20071;-70
2023/04/14 08:48:40;;;;;;;8.45;1.50;;;11.10;99.90;;;;;;5111994;28;20495;-70
2023/04/14 08:51:12;;;;;;;7.05;1.70;;;11.30;99.90;;;;;;5085813;28;20407;-71
2023/04/14 08:53:42;;;;;;;;;;;11.30;99.90;;;;;;5095248;28;20172;-70
2023/04/14 08:56:17;;;;;;;7.57;1.65;;;11.30;99.90;;;;;;5111968;28;19963;-70
2023/04/14 08:58:43;;;;;;;5.18;1.50;;;11.40;99.90;;;;;;5096278;28;20067;-70
2023/04/14 09:01:09;;;;;;;7.25;2.28;;;11.50;99.90;;;;;;5115937;28;20036;-70
2023/04/14 09:03:36;;;;;;;8.15;1.50;;;11.70;99.90;;;;;;5115856;28;20035;-70
2023/04/14 09:06:04;;;;;;;8.10;1.50;;;11.70;99.90;;;;;;5108430;28;20070;-70
2023/04/14 09:08:32;;;;;;;7.05;1.67;;;11.80;99.90;;;;;;5096695;28;20032;-70
2023/04/14 09:11:00;;;;;;;8.65;1.58;;;11.80;99.90;;;;;;5115698;28;20046;-70
2023/04/14 09:13:28;;;;;;;7.57;1.63;;;12.00;99.90;;;;;;5114161;28;20031;-70
2023/04/14 09:15:54;;;;;;;8.23;1.48;;;12.00;99.90;;;;;;5115536;28;20050;-70
2023/04/14 09:18:21;;;;;;;12.18;2.15;;;12.10;99.90;;;;;;5103887;28;20507;-69
2023/04/14 09:20:47;;;;;;;9.95;1.58;;;12.20;99.90;;;;;;5099122;28;20031;-70
2023/04/14 09:23:13;;;;;;;7.00;1.75;;;12.50;99.90;;;;;;5099654;28;20036;-69
2023/04/14 09:25:40;;;;;;;11.00;3.28;;;12.60;99.90;;;;;;5101386;28;20564;-70
2023/04/14 09:28:06;;;;;;;7.40;1.65;;;12.80;99.90;;;;;;5080860;28;20037;-69
2023/04/14 09:30:32;;;;;;;8.52;1.50;;;12.90;99.90;;;;;;5094891;28;20067;-69
2023/04/14 09:32:58;;;;;;;10.30;2.15;;;13.00;99.90;;;;;;5078016;28;20480;-69
2023/04/14 09:35:45;;;;;;;9.05;1.42;;;13.20;99.90;;;;;;5093624;28;20065;-69
2023/04/14 09:38:11;;;;;;;6.38;1.70;;;13.30;99.90;;;;;;5115468;28;20039;-69
2023/04/14 09:40:37;;;;;;;7.13;2.25;;;13.30;99.90;;;;;;5085773;28;20085;-70
2023/04/14 09:43:03;;;;;;;9.30;1.70;;;13.50;99.90;;;;;;5092098;27;20073;-70
2023/04/14 09:45:43;;;;;;;9.43;1.83;;;13.50;99.90;;;;;;5089544;28;20361;-69
2023/04/14 09:48:11;;;;;;;9.45;2.03;;;13.60;99.90;;;;;;5110090;28;20122;-69
2023/04/14 09:51:00;;;;;;;8.48;2.20;;;13.60;99.90;;;;;;5083549;28;20044;-70
2023/04/14 09:53:34;;;;;;;8.43;2.05;;;13.70;99.90;;;;;;5112042;27;20062;-69
2023/04/14 09:56:02;;;;;;;9.30;2.42;;;13.80;99.90;;;;;;5096671;28;20044;-70
2023/04/14 09:58:32;;;;;;;7.25;1.90;;;13.80;99.90;;;;;;5113940;27;20040;-69
2023/04/14 10:00:58;;;;;;;8.30;2.00;;;14.00;99.90;;;;;;5111955;28;20085;-70
2023/04/14 10:03:38;;;;;;;14.60;2.78;;;14.10;99.90;;;;;;5104919;28;20453;-69
2023/04/14 10:06:23;;;;;;;6.38;1.80;;;14.00;99.90;;;;;;5104615;28;20031;-69
2023/04/14 10:08:50;;;;;;;10.05;2.58;;;13.90;99.90;;;;;;5097627;28;20047;-75
2023/04/14 10:11:25;;;;;;;10.70;2.42;;;14.00;99.90;;;;;;5096888;28;20082;-74
2023/04/14 10:13:58;;;;;;;8.57;2.30;;;14.20;99.90;;;;;;5094165;28;20071;-74
2023/04/14 10:16:25;;;;;;;7.30;1.90;;;14.20;99.90;;;;;;5114269;28;20047;-69
2023/04/14 10:18:56;;;;;;;8.82;2.40;;;14.20;99.90;;;;;;5111963;28;20047;-69
2023/04/14 10:21:22;;;;;;;7.70;2.10;;;14.20;99.90;;;;;;5111961;27;20043;-69
2023/04/14 10:23:48;;;;;;;6.38;1.67;;;14.10;99.90;;;;;;5111424;28;20426;-69
2023/04/14 10:26:14;;;;;;;5.47;2.05;;;14.40;99.90;;;;;;5114169;28;20043;-69
2023/04/14 10:28:45;;;;;;;11.20;3.95;;;14.40;99.90;;;;;;5100782;28;20122;-69
2023/04/14 10:31:25;;;;;;;10.10;2.15;;;14.40;99.90;;;;;;5093572;28;20063;-69
2023/04/14 10:33:51;;;;;;;8.52;2.78;;;14.40;99.90;;;;;;5110635;28;20503;-70
2023/04/14 10:36:27;;;;;;;9.20;2.25;;;13.80;95.40;;;;;;5092334;28;20036;-70
2023/04/14 10:38:59;;;;;;;8.43;2.17;;;14.00;99.90;;;;;;5099359;28;20044;-70
2023/04/14 10:41:25;;;;;;;5.53;1.40;;;13.90;99.90;;;;;;5092704;28;20040;-70
2023/04/14 10:43:50;;;;;;;10.90;2.05;;;14.20;99.90;;;;;;5093647;28;20089;-69
2023/04/14 10:46:16;;;;;;;9.07;2.30;;;14.20;99.90;;;;;;5093333;28;20036;-69
2023/04/14 10:48:45;;;;;;;8.30;1.80;;;14.30;99.90;;;;;;5103185;28;20044;-69
2023/04/14 10:51:11;;;;;;;8.57;1.90;;;14.40;99.90;;;;;;5100851;28;20400;-70
2023/04/14 10:53:46;;;;;;;7.47;1.88;;;14.30;99.90;;;;;;5099384;28;20054;-69
2023/04/14 10:56:12;;;;;;;7.22;2.15;;;14.30;99.90;;;;;;5093187;28;20496;-70
2023/04/14 10:58:38;;;;;;;7.65;2.58;;;14.50;99.90;;;;;;5093871;28;20036;-69
2023/04/14 11:01:30;;;;;;;7.25;1.83;;;14.40;99.90;;;;;;5103668;28;20509;-70
2023/04/14 11:04:09;;;;;;;7.13;1.98;;;14.40;99.90;;;;;;5096626;28;20086;-72
2023/04/14 11:06:51;;;;;;;5.18;1.65;;;14.30;99.90;;;;;;5113362;28;20514;-72
2023/04/14 11:09:24;;;;;;;9.52;2.25;;;14.30;99.90;;;;;;5093759;28;20083;-71
2023/04/14 11:11:50;;;;;;;8.45;2.67;;;14.30;99.90;;;;;;5080948;28;20114;-70
2023/04/14 11:14:17;;;;;;;8.05;1.98;;;14.30;99.90;;;;;;5093337;28;20085;-70
2023/04/14 11:16:44;;;;;;;5.10;1.73;;;14.20;99.90;;;;;;5110006;28;20093;-70
2023/04/14 11:19:14;;;;;;;8.68;1.92;;;14.10;99.90;;;;;;5105556;28;20099;-70
2023/04/14 11:21:49;;;;;;;6.72;1.73;;;14.10;99.90;;;;;;5112558;28;20592;-73
2023/04/14 11:24:15;;;;;;;7.10;1.90;;;14.10;99.90;;;;;;5078756;28;20484;-74
2023/04/14 11:26:43;;;;;;;7.57;2.00;;;14.10;99.90;;;;;;5109592;28;20162;-74
2023/04/14 11:29:09;;;;;;;7.22;2.03;;;14.10;99.90;;;;;;5092965;28;20028;-73
2023/04/14 11:31:34;;;;;;;8.52;2.08;;;13.90;98.30;;;;;;5109607;28;20384;-73
2023/04/14 11:34:03;;;;;;;8.80;1.75;;;13.80;98.90;;;;;;5091810;28;20058;-73
2023/04/14 11:36:31;;;;;;;7.10;2.10;;;14.00;99.90;;;;;;5078333;28;20046;-73
2023/04/14 11:38:58;;;;;;;12.30;2.15;;;14.00;96.10;;;;;;5092630;28;20101;-73
2023/04/14 11:41:24;;;;;;;7.30;1.65;;;14.20;99.00;;;;;;5093442;28;20058;-74
2023/04/14 11:43:50;;;;;;;10.18;2.25;;;14.30;99.10;;;;;;5092622;28;20040;-74
2023/04/14 11:46:22;;;;;;;7.85;2.13;;;14.40;99.90;;;;;;5097583;28;20051;-73
2023/04/14 11:48:52;;;;;;;5.97;1.80;;;14.50;99.90;;;;;;5107165;28;20039;-74
2023/04/14 11:51:18;;;;;;;8.38;1.90;;;14.70;99.90;;;;;;5093008;28;20514;-74
2023/04/14 11:53:43;;;;;;;7.63;2.30;;;14.80;99.30;;;;;;5083750;28;20056;-74
2023/04/14 11:56:11;;;;;;;5.90;1.77;;;14.90;99.50;;;;;;5106490;28;20047;-74
2023/04/14 11:58:37;;;;;;;6.85;1.70;;;15.00;99.30;;;;;;5091306;28;20062;-74
2023/04/14 12:01:02;;;;;;;10.25;2.08;;;15.10;96.80;;;;;;5108994;28;20060;-74
2023/04/14 12:03:31;;;;;;;9.30;2.05;;;14.90;96.80;;;;;;5092077;28;20068;-74
2023/04/14 12:05:58;;;;;;;5.82;1.60;;;14.80;98.40;;;;;;5094844;28;20357;-75
2023/04/14 12:08:24;;;;;;;7.72;2.00;;;14.70;96.80;;;;;;5083999;28;20047;-74
2023/04/14 12:10:50;;;;;;;7.38;2.00;;;14.60;95.30;;;;;;5095551;28;20040;-74
2023/04/14 12:13:18;;;;;;;8.73;1.95;;;14.40;95.90;;;;;;5112630;28;20062;-75
2023/04/14 12:15:45;;;;;;;6.50;1.98;;;14.30;97.30;;;;;;5077580;28;20066;-74
2023/04/14 12:18:13;;;;;;;7.78;2.10;;;14.40;95.80;;;;;;5100928;28;20551;-74
2023/04/14 12:20:54;;;;;;;11.88;1.92;;;14.40;96.80;;;;;;5106386;28;20040;-74
2023/04/14 12:23:20;;;;;;;4.85;1.45;;;14.20;95.30;;;;;;5105107;28;20059;-74
2023/04/14 12:25:48;;;;;;;7.18;2.13;;;14.20;96.20;;;;;;5095256;28;20079;-74
2023/04/14 12:28:18;;;;;;;9.80;2.42;;;14.00;96.60;;;;;;5094267;28;20031;-74
2023/04/14 12:30:51;;;;;;;8.73;2.22;;;14.10;98.00;;;;;;5091482;28;20530;-74
2023/04/14 12:33:17;;;;;;;7.68;2.10;;;14.10;98.70;;;;;;5092509;28;20495;-74
2023/04/14 12:35:43;;;;;;;7.13;2.33;;;14.10;99.10;;;;;;5096108;28;20127;-68
2023/04/14 12:38:13;;;;;;;9.10;2.00;;;14.10;96.20;;;;;;5098597;28;20043;-68
2023/04/14 12:40:41;;;;;;;8.88;2.25;;;14.20;99.80;;;;;;5103461;28;20032;-68
2023/04/14 12:43:07;;;;;;;6.60;1.67;;;14.30;97.60;;;;;;5078917;28;20032;-68
2023/04/14 12:45:39;;;;;;;4.70;1.40;;;14.50;98.00;;;;;;5078797;28;20035;-68
2023/04/14 12:48:05;;;;;;;6.57;1.60;;;14.70;95.40;;;;;;5077962;28;20212;-68
2023/04/14 12:50:32;;;;;;;7.13;1.80;;;14.80;92.40;;;;;;5095750;28;20036;-69
2023/04/14 12:53:01;;;;;;;9.10;1.88;;;14.70;95.30;;;;;;5095585;28;20056;-68
2023/04/14 12:55:29;;;;;;;6.00;1.70;;;14.80;95.30;;;;;;5094791;28;20089;-68
2023/04/14 12:57:56;;;;;;;9.57;1.95;;;14.80;94.60;;;;;;5093927;28;20372;-68